Ocean Tomo — 3FID9 — position and weather

sailwx.info

Track history (hours):
 
Tides and Currents Weather Stations Pressure Air Temp Water Temp Dewpoint Dewpoint Depression Visibility Wind Speed Wind Dir Waves Ship Positions

Ocean Tomo

Last reported at 2014-Aug-11 21:16 UTC. Time now 2014-Aug-29 01:33 UTC.
Position N 36°02' W 005°15'.
Warning: this ship's position is 17 days out of date.

Length 190 m; draft 6 m.

Type: Ship. MMSI: 372951000.

Date/timePositionNaut miles runAvg speedWind from/ knotsBaromVisibWave heightAir tempDewpointWater temp
2014-Aug-11 21:16N 36°02' W 005°15'143 5.9
2014-Aug-10 21:08N 36°18' W 002°19'814.0
2014-Aug-10 20:33N 36°19' W 002°09'1413.4
2014-Aug-10 19:28N 36°21' W 001°51'1213.2
2014-Aug-10 18:33N 36°26' W 001°37'1313.5
2014-Aug-10 17:33N 36°32' W 001°23'1513.6
2014-Aug-10 16:29N 36°40' W 001°07'1313.7
2014-Aug-10 15:33N 36°47' W 000°54'1313.4
2014-Aug-10 14:33N 36°54' W 000°39'1313.4
2014-Aug-10 13:33N 37°01' W 000°25'1313.4
2014-Aug-10 12:33N 37°08' W 000°11'1313.3
2014-Aug-10 11:33N 37°15' E 000°03'1413.7
2014-Aug-10 10:32N 37°22' E 000°18'1413.8
2014-Aug-10 09:33N 37°29' E 000°33'1413.9
2014-Aug-10 08:33N 37°36' E 000°48'1414.2
2014-Aug-10 07:33N 37°43' E 001°04'1413.9
2014-Aug-10 06:34N 37°50' E 001°19'1413.6
2014-Aug-10 05:33N 37°58' E 001°33'1413.5
2014-Aug-10 04:33N 38°05' E 001°48'1414.2
2014-Aug-10 03:33N 38°12' E 002°03'1413.6
2014-Aug-10 02:34N 38°19' E 002°18'1313.4
2014-Aug-10 01:33N 38°26' E 002°32'1413.4
2014-Aug-10 00:33N 38°34' E 002°47'1313.4
2014-Aug-09 23:33N 38°41' E 003°02'1313.3
2014-Aug-09 22:33N 38°47' E 003°16'1313.3
2014-Aug-09 21:33N 38°54' E 003°31'1313.3
2014-Aug-09 20:33N 39°01' E 003°45'1313.3
2014-Aug-09 19:33N 39°08' E 004°00'1313.3
2014-Aug-09 18:33N 39°15' E 004°15'1313.4
2014-Aug-09 17:33N 39°22' E 004°30'1413.5
2014-Aug-09 16:33N 39°30' E 004°44'1413.6
2014-Aug-09 15:33N 39°37' E 004°59'1413.6
2014-Aug-09 14:34N 39°43' E 005°15'1313.0
2014-Aug-09 13:33N 39°53' E 005°27'1413.5
2014-Aug-09 12:33N 40°05' E 005°34'1613.8
2014-Aug-09 11:25N 40°19' E 005°43'1314.7
2014-Aug-09 10:33N 40°31' E 005°49'1514.7
2014-Aug-09 09:33N 40°44' E 005°58'1414.2
2014-Aug-09 08:33N 40°57' E 006°06'1514.1
2014-Aug-09 07:30N 41°10' E 006°14'1615.0
2014-Aug-09 06:27N 41°25' E 006°23'1213.3
2014-Aug-09 05:33N 41°34' E 006°32'1413.9
2014-Aug-09 04:34N 41°45' E 006°43'1414.2
2014-Aug-09 03:33N 41°57' E 006°55'1514.9
2014-Aug-09 02:33N 42°09' E 007°07'1414.3
2014-Aug-09 01:33N 42°20' E 007°18'1514.4
2014-Aug-09 00:33N 42°32' E 007°31'1413.8
2014-Aug-08 23:34N 42°43' E 007°41'1413.9
2014-Aug-08 22:33N 42°54' E 007°52'1414.1
2014-Aug-08 21:33N 43°06' E 008°03'1414.2
2014-Aug-08 20:33N 43°17' E 008°15'1414.1
2014-Aug-08 19:33N 43°29' E 008°26'1414.0
2014-Aug-08 18:33N 43°40' E 008°38'1413.9
2014-Aug-08 17:33N 43°51' E 008°49'1413.5
2014-Aug-08 16:33N 44°03' E 008°59'1414.0
2014-Aug-08 15:34N 44°17' E 009°00'4 4.0
2014-Aug-08 14:32N 44°21' E 009°02'0 0.0
2014-Aug-08 13:32N 44°21' E 009°02'0 0.0
2014-Aug-08 12:32N 44°21' E 009°02'0 0.0
2014-Aug-08 11:32N 44°21' E 009°02'0 0.0
2014-Aug-08 10:29N 44°21' E 009°02'0 0.0
2014-Aug-08 09:32N 44°21' E 009°02'0 0.0
2014-Aug-08 08:32N 44°21' E 009°02'0 0.0
2014-Aug-08 07:32N 44°21' E 009°02'0 0.0
2014-Aug-08 06:32N 44°21' E 009°02'0 0.0
2014-Aug-08 05:32N 44°21' E 009°02'0 0.0
2014-Aug-08 04:32N 44°21' E 009°02'0 0.0
2014-Aug-08 03:32N 44°21' E 009°02'0 0.0
2014-Aug-08 02:29N 44°21' E 009°02'0 0.0
2014-Aug-08 01:32N 44°21' E 009°02'0 0.0
2014-Aug-08 00:32N 44°21' E 009°02'0 0.0
2014-Aug-07 23:32N 44°21' E 009°02'0 0.0
2014-Aug-07 22:32N 44°21' E 009°02'0 0.0
2014-Aug-07 21:32N 44°21' E 009°02'0 0.0
2014-Aug-07 20:32N 44°21' E 009°02'0 0.0
2014-Aug-07 19:32N 44°21' E 009°02'0 0.0
2014-Aug-07 18:32N 44°21' E 009°02'0 0.0
2014-Aug-07 17:32N 44°21' E 009°02'0 0.0
2014-Aug-07 16:32N 44°21' E 009°02'0 0.0
2014-Aug-07 15:29N 44°21' E 009°02'0 0.0
2014-Aug-07 14:32N 44°21' E 009°02'0 0.0
2014-Aug-07 13:32N 44°21' E 009°02'0 0.0
2014-Aug-07 12:32N 44°21' E 009°02'0 0.0
2014-Aug-07 11:32N 44°21' E 009°02'0 0.0
2014-Aug-07 10:32N 44°21' E 009°02'0 0.0
2014-Aug-07 09:32N 44°21' E 009°02'0 0.0
2014-Aug-07 08:32N 44°21' E 009°02'0 0.0
2014-Aug-07 07:32N 44°21' E 009°02'0 0.0
2014-Aug-07 06:32N 44°21' E 009°02'0 0.0
2014-Aug-07 05:32N 44°21' E 009°02'0 0.0
2014-Aug-07 04:32N 44°21' E 009°02'0 0.0
2014-Aug-07 03:32N 44°21' E 009°02'0 0.1
2014-Aug-07 02:32N 44°21' E 009°02'0 0.0
2014-Aug-07 01:32N 44°21' E 009°02'0 0.0
2014-Aug-07 00:32N 44°21' E 009°02'0 0.0
2014-Aug-06 23:32N 44°21' E 009°02'0 0.0
2014-Aug-06 22:32N 44°21' E 009°02'0 0.0
2014-Aug-06 21:32N 44°21' E 009°02'0 0.0
2014-Aug-06 20:29N 44°21' E 009°02'0 0.0
2014-Aug-06 19:32N 44°21' E 009°02'0 0.0
2014-Aug-06 18:32N 44°21' E 009°02'0 0.0
2014-Aug-06 17:32N 44°21' E 009°02'0 0.0
2014-Aug-06 16:29N 44°21' E 009°02'0 0.0
2014-Aug-06 15:32N 44°21' E 009°02'0 0.0
2014-Aug-06 14:32N 44°21' E 009°02'0 0.0
2014-Aug-06 13:32N 44°21' E 009°02'0 0.0
2014-Aug-06 12:26N 44°21' E 009°02'0 0.0
2014-Aug-06 11:32N 44°21' E 009°02'0 0.0
2014-Aug-06 10:32N 44°21' E 009°02'0 0.0
2014-Aug-06 09:29N 44°21' E 009°02'0 0.1
2014-Aug-06 08:29N 44°21' E 009°02'0 0.1
2014-Aug-06 07:32N 44°21' E 009°02'0 0.0
2014-Aug-06 06:32N 44°21' E 009°02'0 0.0
2014-Aug-06 05:32N 44°21' E 009°02'0 0.0
2014-Aug-06 04:32N 44°21' E 009°02'0 0.1
2014-Aug-06 03:32N 44°21' E 009°02'0 0.0
2014-Aug-06 02:32N 44°21' E 009°02'0 0.1
2014-Aug-06 01:29N 44°21' E 009°02'0 0.1
2014-Aug-06 00:33N 44°21' E 009°02'2 1.9
2014-Aug-05 23:33N 44°22' E 008°60'4 4.4
2014-Aug-05 22:32N 44°24' E 008°54'0 0.0
2014-Aug-05 21:30N 44°24' E 008°54'0 0.0
2014-Aug-05 20:32N 44°24' E 008°54'0 0.0
2014-Aug-05 19:32N 44°24' E 008°54'0 0.0
2014-Aug-05 18:32N 44°24' E 008°54'0 0.0
2014-Aug-05 17:32N 44°24' E 008°54'0 0.0
2014-Aug-05 16:32N 44°24' E 008°54'0 0.0
2014-Aug-05 15:33N 44°24' E 008°54'0 0.0
2014-Aug-05 14:32N 44°24' E 008°54'0 0.0
2014-Aug-05 13:32N 44°24' E 008°54'0 0.0
2014-Aug-05 12:32N 44°24' E 008°54'0 0.0
2014-Aug-05 11:33N 44°24' E 008°54'0 0.0
2014-Aug-05 10:32N 44°24' E 008°54'0 0.0
2014-Aug-05 09:32N 44°24' E 008°54'0 0.0
2014-Aug-05 08:32N 44°24' E 008°54'0 0.0
2014-Aug-05 07:32N 44°24' E 008°54'0 0.0
2014-Aug-05 06:32N 44°24' E 008°54'0 0.0
2014-Aug-05 05:32N 44°24' E 008°54'0 0.0
2014-Aug-05 04:32N 44°24' E 008°54'0 0.0
2014-Aug-05 03:29N 44°24' E 008°54'0 0.0
2014-Aug-05 02:29N 44°24' E 008°54'0 0.0
2014-Aug-05 01:32N 44°24' E 008°54'0 0.0
2014-Aug-05 00:32N 44°24' E 008°54'0 0.0
2014-Aug-04 23:32N 44°24' E 008°54'0 0.0
2014-Aug-04 22:32N 44°24' E 008°54'0 0.0
2014-Aug-04 21:29N 44°24' E 008°54'0 0.0
2014-Aug-04 20:32N 44°24' E 008°54'0 0.0
2014-Aug-04 19:32N 44°24' E 008°54'0 0.0
2014-Aug-04 18:32N 44°24' E 008°54'0 0.0
2014-Aug-04 17:32N 44°24' E 008°54'0 0.0
2014-Aug-04 16:32N 44°24' E 008°54'0 0.0
2014-Aug-04 15:32N 44°24' E 008°54'0 0.0
2014-Aug-04 14:32N 44°24' E 008°54'0 0.0
2014-Aug-04 13:32N 44°24' E 008°54'0 0.0
2014-Aug-04 12:32N 44°24' E 008°54'0 0.0
2014-Aug-04 11:32N 44°24' E 008°54'0 0.0
2014-Aug-04 10:32N 44°24' E 008°54'0 0.0
2014-Aug-04 09:29N 44°24' E 008°54'0 0.0
2014-Aug-04 08:32N 44°24' E 008°54'0 0.0
2014-Aug-04 07:29N 44°24' E 008°54'0 0.0
2014-Aug-04 06:32N 44°24' E 008°54'0 0.0
2014-Aug-04 05:32N 44°24' E 008°54'0 0.0
2014-Aug-04 04:29N 44°24' E 008°54'0 0.0
2014-Aug-04 03:32N 44°24' E 008°54'0 0.0
2014-Aug-04 02:32N 44°24' E 008°54'0 0.0
2014-Aug-04 01:32N 44°24' E 008°54'0 0.0
2014-Aug-04 00:32N 44°24' E 008°54'0 0.0
2014-Aug-03 23:32N 44°24' E 008°54'0 0.0
2014-Aug-03 22:32N 44°24' E 008°54'0 0.0
2014-Aug-03 21:32N 44°24' E 008°54'0 0.0
2014-Aug-03 20:32N 44°24' E 008°54'0 0.0
2014-Aug-03 19:32N 44°24' E 008°54'0 0.0
2014-Aug-03 18:32N 44°24' E 008°54'0 0.0
2014-Aug-03 17:32N 44°24' E 008°54'0 0.0
2014-Aug-03 11:32N 44°24' E 008°54'0 0.0
2014-Aug-03 10:32N 44°24' E 008°54'0 0.0
2014-Aug-03 09:32N 44°24' E 008°54'0 0.0
2014-Aug-03 08:29N 44°24' E 008°54'0 0.0
2014-Aug-03 07:32N 44°24' E 008°54'0 0.0
2014-Aug-03 06:32N 44°24' E 008°54'0 0.0
2014-Aug-03 05:32N 44°24' E 008°54'0 0.0
2014-Aug-03 04:32N 44°24' E 008°54'0 0.0
2014-Aug-03 03:32N 44°24' E 008°54'0 0.0
2014-Aug-03 02:32N 44°24' E 008°54'0 0.0
2014-Aug-03 01:32N 44°24' E 008°54'0 0.0
2014-Aug-03 00:32N 44°24' E 008°54'0 0.0
2014-Aug-02 23:32N 44°24' E 008°54'0 0.0
2014-Aug-02 22:32N 44°24' E 008°54'0 0.0
2014-Aug-02 21:32N 44°24' E 008°54'0 0.0
2014-Aug-02 20:29N 44°24' E 008°54'0 0.0
2014-Aug-02 19:32N 44°24' E 008°54'0 0.0
2014-Aug-02 18:32N 44°24' E 008°54'0 0.0
2014-Aug-02 17:32N 44°24' E 008°54'0 0.0
2014-Aug-02 16:32N 44°24' E 008°54'0 0.0
2014-Aug-02 15:32N 44°24' E 008°54'0 0.0
2014-Aug-02 14:32N 44°24' E 008°54'0 0.0
2014-Aug-02 13:32N 44°24' E 008°54'0 0.0
2014-Aug-02 12:32N 44°24' E 008°54'0 0.0
2014-Aug-02 11:32N 44°24' E 008°54'0 0.0
2014-Aug-02 10:32N 44°24' E 008°54'0 0.0
2014-Aug-02 09:32N 44°24' E 008°54'0 0.0
2014-Aug-02 08:32N 44°24' E 008°54'0 0.0
2014-Aug-02 07:32N 44°24' E 008°54'0 0.0
2014-Aug-02 06:32N 44°24' E 008°54'0 0.0
2014-Aug-02 05:26N 44°24' E 008°54'0 0.0
2014-Aug-02 04:32N 44°24' E 008°54'0 0.0
2014-Aug-02 03:32N 44°24' E 008°54'0 0.0
2014-Aug-02 02:32N 44°24' E 008°54'0 0.0
2014-Aug-02 01:32N 44°24' E 008°54'0 0.0
2014-Aug-02 00:32N 44°24' E 008°54'0 0.0
2014-Aug-01 23:32N 44°24' E 008°54'0 0.0
2014-Aug-01 22:32N 44°24' E 008°54'0 0.0
2014-Aug-01 21:29N 44°24' E 008°54'  
Track history (hours):
 
Tides and Currents Weather Stations Pressure Air Temp Water Temp Dewpoint Dewpoint Depression Visibility Wind Speed Wind Dir Waves Ship Positions

Ocean Tomo

Last reported at 2014-Aug-11 21:16 UTC. Time now 2014-Aug-29 01:33 UTC.
Position N 36°02' W 005°15'.
Warning: this ship's position is 17 days out of date.

Length 190 m; draft 6 m.

Type: Ship. MMSI: 372951000.

Date/timePositionNaut miles runAvg speedWind from/ knotsBaromVisibWave heightAir tempDewpointWater temp
2014-Aug-11 21:16N 36°02' W 005°15'143 5.9
2014-Aug-10 21:08N 36°18' W 002°19'814.0
2014-Aug-10 20:33N 36°19' W 002°09'1413.4
2014-Aug-10 19:28N 36°21' W 001°51'1213.2
2014-Aug-10 18:33N 36°26' W 001°37'1313.5
2014-Aug-10 17:33N 36°32' W 001°23'1513.6
2014-Aug-10 16:29N 36°40' W 001°07'1313.7
2014-Aug-10 15:33N 36°47' W 000°54'1313.4
2014-Aug-10 14:33N 36°54' W 000°39'1313.4
2014-Aug-10 13:33N 37°01' W 000°25'1313.4
2014-Aug-10 12:33N 37°08' W 000°11'1313.3
2014-Aug-10 11:33N 37°15' E 000°03'1413.7
2014-Aug-10 10:32N 37°22' E 000°18'1413.8
2014-Aug-10 09:33N 37°29' E 000°33'1413.9
2014-Aug-10 08:33N 37°36' E 000°48'1414.2
2014-Aug-10 07:33N 37°43' E 001°04'1413.9
2014-Aug-10 06:34N 37°50' E 001°19'1413.6
2014-Aug-10 05:33N 37°58' E 001°33'1413.5
2014-Aug-10 04:33N 38°05' E 001°48'1414.2
2014-Aug-10 03:33N 38°12' E 002°03'1413.6
2014-Aug-10 02:34N 38°19' E 002°18'1313.4
2014-Aug-10 01:33N 38°26' E 002°32'1413.4
2014-Aug-10 00:33N 38°34' E 002°47'1313.4
2014-Aug-09 23:33N 38°41' E 003°02'1313.3
2014-Aug-09 22:33N 38°47' E 003°16'1313.3
2014-Aug-09 21:33N 38°54' E 003°31'1313.3
2014-Aug-09 20:33N 39°01' E 003°45'1313.3
2014-Aug-09 19:33N 39°08' E 004°00'1313.3
2014-Aug-09 18:33N 39°15' E 004°15'1313.4
2014-Aug-09 17:33N 39°22' E 004°30'1413.5
2014-Aug-09 16:33N 39°30' E 004°44'1413.6
2014-Aug-09 15:33N 39°37' E 004°59'1413.6
2014-Aug-09 14:34N 39°43' E 005°15'1313.0
2014-Aug-09 13:33N 39°53' E 005°27'1413.5
2014-Aug-09 12:33N 40°05' E 005°34'1613.8
2014-Aug-09 11:25N 40°19' E 005°43'1314.7
2014-Aug-09 10:33N 40°31' E 005°49'1514.7
2014-Aug-09 09:33N 40°44' E 005°58'1414.2
2014-Aug-09 08:33N 40°57' E 006°06'1514.1
2014-Aug-09 07:30N 41°10' E 006°14'1615.0
2014-Aug-09 06:27N 41°25' E 006°23'1213.3
2014-Aug-09 05:33N 41°34' E 006°32'1413.9
2014-Aug-09 04:34N 41°45' E 006°43'1414.2
2014-Aug-09 03:33N 41°57' E 006°55'1514.9
2014-Aug-09 02:33N 42°09' E 007°07'1414.3
2014-Aug-09 01:33N 42°20' E 007°18'1514.4
2014-Aug-09 00:33N 42°32' E 007°31'1413.8
2014-Aug-08 23:34N 42°43' E 007°41'1413.9
2014-Aug-08 22:33N 42°54' E 007°52'1414.1
2014-Aug-08 21:33N 43°06' E 008°03'1414.2
2014-Aug-08 20:33N 43°17' E 008°15'1414.1
2014-Aug-08 19:33N 43°29' E 008°26'1414.0
2014-Aug-08 18:33N 43°40' E 008°38'1413.9
2014-Aug-08 17:33N 43°51' E 008°49'1413.5
2014-Aug-08 16:33N 44°03' E 008°59'1414.0
2014-Aug-08 15:34N 44°17' E 009°00'4 4.0
2014-Aug-08 14:32N 44°21' E 009°02'0 0.0
2014-Aug-08 13:32N 44°21' E 009°02'0 0.0
2014-Aug-08 12:32N 44°21' E 009°02'0 0.0
2014-Aug-08 11:32N 44°21' E 009°02'0 0.0
2014-Aug-08 10:29N 44°21' E 009°02'0 0.0
2014-Aug-08 09:32N 44°21' E 009°02'0 0.0
2014-Aug-08 08:32N 44°21' E 009°02'0 0.0
2014-Aug-08 07:32N 44°21' E 009°02'0 0.0
2014-Aug-08 06:32N 44°21' E 009°02'0 0.0
2014-Aug-08 05:32N 44°21' E 009°02'0 0.0
2014-Aug-08 04:32N 44°21' E 009°02'0 0.0
2014-Aug-08 03:32N 44°21' E 009°02'0 0.0
2014-Aug-08 02:29N 44°21' E 009°02'0 0.0
2014-Aug-08 01:32N 44°21' E 009°02'0 0.0
2014-Aug-08 00:32N 44°21' E 009°02'0 0.0
2014-Aug-07 23:32N 44°21' E 009°02'0 0.0
2014-Aug-07 22:32N 44°21' E 009°02'0 0.0
2014-Aug-07 21:32N 44°21' E 009°02'0 0.0
2014-Aug-07 20:32N 44°21' E 009°02'0 0.0
2014-Aug-07 19:32N 44°21' E 009°02'0 0.0
2014-Aug-07 18:32N 44°21' E 009°02'0 0.0
2014-Aug-07 17:32N 44°21' E 009°02'0 0.0
2014-Aug-07 16:32N 44°21' E 009°02'0 0.0
2014-Aug-07 15:29N 44°21' E 009°02'0 0.0
2014-Aug-07 14:32N 44°21' E 009°02'0 0.0
2014-Aug-07 13:32N 44°21' E 009°02'0 0.0
2014-Aug-07 12:32N 44°21' E 009°02'0 0.0
2014-Aug-07 11:32N 44°21' E 009°02'0 0.0
2014-Aug-07 10:32N 44°21' E 009°02'0 0.0
2014-Aug-07 09:32N 44°21' E 009°02'0 0.0
2014-Aug-07 08:32N 44°21' E 009°02'0 0.0
2014-Aug-07 07:32N 44°21' E 009°02'0 0.0
2014-Aug-07 06:32N 44°21' E 009°02'0 0.0
2014-Aug-07 05:32N 44°21' E 009°02'0 0.0
2014-Aug-07 04:32N 44°21' E 009°02'0 0.0
2014-Aug-07 03:32N 44°21' E 009°02'0 0.1
2014-Aug-07 02:32N 44°21' E 009°02'0 0.0
2014-Aug-07 01:32N 44°21' E 009°02'0 0.0
2014-Aug-07 00:32N 44°21' E 009°02'0 0.0
2014-Aug-06 23:32N 44°21' E 009°02'0 0.0
2014-Aug-06 22:32N 44°21' E 009°02'0 0.0
2014-Aug-06 21:32N 44°21' E 009°02'0 0.0
2014-Aug-06 20:29N 44°21' E 009°02'0 0.0
2014-Aug-06 19:32N 44°21' E 009°02'0 0.0
2014-Aug-06 18:32N 44°21' E 009°02'0 0.0
2014-Aug-06 17:32N 44°21' E 009°02'0 0.0
2014-Aug-06 16:29N 44°21' E 009°02'0 0.0
2014-Aug-06 15:32N 44°21' E 009°02'0 0.0
2014-Aug-06 14:32N 44°21' E 009°02'0 0.0
2014-Aug-06 13:32N 44°21' E 009°02'0 0.0
2014-Aug-06 12:26N 44°21' E 009°02'0 0.0
2014-Aug-06 11:32N 44°21' E 009°02'0 0.0
2014-Aug-06 10:32N 44°21' E 009°02'0 0.0
2014-Aug-06 09:29N 44°21' E 009°02'0 0.1
2014-Aug-06 08:29N 44°21' E 009°02'0 0.1
2014-Aug-06 07:32N 44°21' E 009°02'0 0.0
2014-Aug-06 06:32N 44°21' E 009°02'0 0.0
2014-Aug-06 05:32N 44°21' E 009°02'0 0.0
2014-Aug-06 04:32N 44°21' E 009°02'0 0.1
2014-Aug-06 03:32N 44°21' E 009°02'0 0.0
2014-Aug-06 02:32N 44°21' E 009°02'0 0.1
2014-Aug-06 01:29N 44°21' E 009°02'0 0.1
2014-Aug-06 00:33N 44°21' E 009°02'2 1.9
2014-Aug-05 23:33N 44°22' E 008°60'4 4.4
2014-Aug-05 22:32N 44°24' E 008°54'0 0.0
2014-Aug-05 21:30N 44°24' E 008°54'0 0.0
2014-Aug-05 20:32N 44°24' E 008°54'0 0.0
2014-Aug-05 19:32N 44°24' E 008°54'0 0.0
2014-Aug-05 18:32N 44°24' E 008°54'0 0.0
2014-Aug-05 17:32N 44°24' E 008°54'0 0.0
2014-Aug-05 16:32N 44°24' E 008°54'0 0.0
2014-Aug-05 15:33N 44°24' E 008°54'0 0.0
2014-Aug-05 14:32N 44°24' E 008°54'0 0.0
2014-Aug-05 13:32N 44°24' E 008°54'0 0.0
2014-Aug-05 12:32N 44°24' E 008°54'0 0.0
2014-Aug-05 11:33N 44°24' E 008°54'0 0.0
2014-Aug-05 10:32N 44°24' E 008°54'0 0.0
2014-Aug-05 09:32N 44°24' E 008°54'0 0.0
2014-Aug-05 08:32N 44°24' E 008°54'0 0.0
2014-Aug-05 07:32N 44°24' E 008°54'0 0.0
2014-Aug-05 06:32N 44°24' E 008°54'0 0.0
2014-Aug-05 05:32N 44°24' E 008°54'0 0.0
2014-Aug-05 04:32N 44°24' E 008°54'0 0.0
2014-Aug-05 03:29N 44°24' E 008°54'0 0.0
2014-Aug-05 02:29N 44°24' E 008°54'0 0.0
2014-Aug-05 01:32N 44°24' E 008°54'0 0.0
2014-Aug-05 00:32N 44°24' E 008°54'0 0.0
2014-Aug-04 23:32N 44°24' E 008°54'0 0.0
2014-Aug-04 22:32N 44°24' E 008°54'0 0.0
2014-Aug-04 21:29N 44°24' E 008°54'0 0.0
2014-Aug-04 20:32N 44°24' E 008°54'0 0.0
2014-Aug-04 19:32N 44°24' E 008°54'0 0.0
2014-Aug-04 18:32N 44°24' E 008°54'0 0.0
2014-Aug-04 17:32N 44°24' E 008°54'0 0.0
2014-Aug-04 16:32N 44°24' E 008°54'0 0.0
2014-Aug-04 15:32N 44°24' E 008°54'0 0.0
2014-Aug-04 14:32N 44°24' E 008°54'0 0.0
2014-Aug-04 13:32N 44°24' E 008°54'0 0.0
2014-Aug-04 12:32N 44°24' E 008°54'0 0.0
2014-Aug-04 11:32N 44°24' E 008°54'0 0.0
2014-Aug-04 10:32N 44°24' E 008°54'0 0.0
2014-Aug-04 09:29N 44°24' E 008°54'0 0.0
2014-Aug-04 08:32N 44°24' E 008°54'0 0.0
2014-Aug-04 07:29N 44°24' E 008°54'0 0.0
2014-Aug-04 06:32N 44°24' E 008°54'0 0.0
2014-Aug-04 05:32N 44°24' E 008°54'0 0.0
2014-Aug-04 04:29N 44°24' E 008°54'0 0.0
2014-Aug-04 03:32N 44°24' E 008°54'0 0.0
2014-Aug-04 02:32N 44°24' E 008°54'0 0.0
2014-Aug-04 01:32N 44°24' E 008°54'0 0.0
2014-Aug-04 00:32N 44°24' E 008°54'0 0.0
2014-Aug-03 23:32N 44°24' E 008°54'0 0.0
2014-Aug-03 22:32N 44°24' E 008°54'0 0.0
2014-Aug-03 21:32N 44°24' E 008°54'0 0.0
2014-Aug-03 20:32N 44°24' E 008°54'0 0.0
2014-Aug-03 19:32N 44°24' E 008°54'0 0.0
2014-Aug-03 18:32N 44°24' E 008°54'0 0.0
2014-Aug-03 17:32N 44°24' E 008°54'0 0.0
2014-Aug-03 11:32N 44°24' E 008°54'0 0.0
2014-Aug-03 10:32N 44°24' E 008°54'0 0.0
2014-Aug-03 09:32N 44°24' E 008°54'0 0.0
2014-Aug-03 08:29N 44°24' E 008°54'0 0.0
2014-Aug-03 07:32N 44°24' E 008°54'0 0.0
2014-Aug-03 06:32N 44°24' E 008°54'0 0.0
2014-Aug-03 05:32N 44°24' E 008°54'0 0.0
2014-Aug-03 04:32N 44°24' E 008°54'0 0.0
2014-Aug-03 03:32N 44°24' E 008°54'0 0.0
2014-Aug-03 02:32N 44°24' E 008°54'0 0.0
2014-Aug-03 01:32N 44°24' E 008°54'0 0.0
2014-Aug-03 00:32N 44°24' E 008°54'0 0.0
2014-Aug-02 23:32N 44°24' E 008°54'0 0.0
2014-Aug-02 22:32N 44°24' E 008°54'0 0.0
2014-Aug-02 21:32N 44°24' E 008°54'0 0.0
2014-Aug-02 20:29N 44°24' E 008°54'0 0.0
2014-Aug-02 19:32N 44°24' E 008°54'0 0.0
2014-Aug-02 18:32N 44°24' E 008°54'0 0.0
2014-Aug-02 17:32N 44°24' E 008°54'0 0.0
2014-Aug-02 16:32N 44°24' E 008°54'0 0.0
2014-Aug-02 15:32N 44°24' E 008°54'0 0.0
2014-Aug-02 14:32N 44°24' E 008°54'0 0.0
2014-Aug-02 13:32N 44°24' E 008°54'0 0.0
2014-Aug-02 12:32N 44°24' E 008°54'0 0.0
2014-Aug-02 11:32N 44°24' E 008°54'0 0.0
2014-Aug-02 10:32N 44°24' E 008°54'0 0.0
2014-Aug-02 09:32N 44°24' E 008°54'0 0.0
2014-Aug-02 08:32N 44°24' E 008°54'0 0.0
2014-Aug-02 07:32N 44°24' E 008°54'0 0.0
2014-Aug-02 06:32N 44°24' E 008°54'0 0.0
2014-Aug-02 05:26N 44°24' E 008°54'0 0.0
2014-Aug-02 04:32N 44°24' E 008°54'0 0.0
2014-Aug-02 03:32N 44°24' E 008°54'0 0.0
2014-Aug-02 02:32N 44°24' E 008°54'0 0.0
2014-Aug-02 01:32N 44°24' E 008°54'0 0.0
2014-Aug-02 00:32N 44°24' E 008°54'0 0.0
2014-Aug-01 23:32N 44°24' E 008°54'0 0.0
2014-Aug-01 22:32N 44°24' E 008°54'0 0.0
2014-Aug-01 21:29N 44°24' E 008°54'  

Dump ship's entire track history